Terminal Aerodrome Forecast
Issued by NWS

Home | Current Version | Previous Version | Graphics & Text | Print | Product List | Glossary On
Versions: 1 2 3 4 5 6 7 8 9 10 11 12 13 14 15
000
FTUS41 KCLE 261700
TAFFDY
TAF
KFDY 261739Z 2618/2718 32010KT 6SM BR OVC015
     FM261900 30010KT P6SM OVC025
     FM262100 28010KT P6SM BKN045
     FM270300 32010KT P6SM SCT045
     FM271300 33010KT P6SM OVC020=

USA.gov is the U.S. government's official web portal to all federal, state and local government web resources and services.